Time;durP1;ratioP1;P1;durP2;ratioP2;P2;SDS_P1;SDS_P2;PMS_P1;PMS_P2;Temp;Humidity;BMP_temperature;BMP_pressure;BME280_temperature;BME280_humidity;BME280_pressure;Samples;Min_cycle;Max_cycle;Signal;HPM_P1;HPM_P2
2021/06/07 00:05:45;;;;;;;13.83;8.38;;;;;;;13.18;72.73;99340.63;4222652;83;21724;-78
2021/06/07 00:11:53;;;;;;;11.85;8.15;;;;;;;12.93;72.82;99342.38;4229716;82;20989;-78
2021/06/07 00:17:54;;;;;;;12.07;7.87;;;;;;;12.77;73.35;99345.41;4203211;82;21053;-78
2021/06/07 00:23:58;;;;;;;10.20;7.55;;;;;;;12.64;73.77;99341.37;4206310;81;21041;-78
2021/06/07 00:30:02;;;;;;;10.50;7.95;;;;;;;12.73;73.93;99345.98;4212735;81;21064;-78
2021/06/07 00:36:05;;;;;;;11.63;8.50;;;;;;;12.49;74.12;99340.48;4218963;81;21000;-78
2021/06/07 00:42:08;;;;;;;12.03;7.83;;;;;;;12.42;74.17;99345.09;4217545;82;21912;-78
2021/06/07 00:48:10;;;;;;;10.93;8.15;;;;;;;12.40;74.53;99338.61;4206699;83;21113;-78
2021/06/07 00:54:17;;;;;;;17.10;8.38;;;;;;;12.38;74.69;99334.10;4128905;85;21106;-78
2021/06/07 01:00:20;;;;;;;13.32;8.30;;;;;;;12.48;75.19;99335.37;4227400;83;21057;-81
2021/06/07 01:06:22;;;;;;;15.20;9.75;;;;;;;12.40;74.75;99335.86;4219454;83;21651;-80
2021/06/07 01:12:24;;;;;;;13.68;8.05;;;;;;;12.17;74.83;99331.72;4221255;83;20987;-78
2021/06/07 01:18:29;;;;;;;16.32;9.35;;;;;;;12.05;75.25;99332.80;4213173;83;21598;-78
2021/06/07 01:24:30;;;;;;;15.03;8.10;;;;;;;11.93;75.51;99329.52;4254754;81;21020;-78
2021/06/07 01:30:36;;;;;;;14.75;9.73;;;;;;;11.97;76.18;99331.70;4161114;83;21033;-77
2021/06/07 01:36:37;;;;;;;13.32;8.20;;;;;;;12.20;76.10;99335.11;4147577;84;21053;-79
2021/06/07 01:42:38;;;;;;;13.08;8.28;;;;;;;12.35;76.06;99333.48;4161409;85;21134;-78
2021/06/07 01:48:41;;;;;;;14.28;9.50;;;;;;;12.10;75.61;99321.48;4140301;84;21411;-78
2021/06/07 01:54:42;;;;;;;12.82;8.95;;;;;;;11.91;75.71;99320.87;4139026;85;21060;-78
2021/06/07 02:01:02;;;;;;;11.63;7.58;;;;;;;11.86;76.17;99317.09;4153957;84;21031;-78
2021/06/07 02:07:03;;;;;;;13.62;8.65;;;;;;;11.99;76.39;99324.70;4174566;84;21110;-79
2021/06/07 02:13:07;;;;;;;12.80;9.08;;;;;;;11.85;76.19;99324.55;4168319;84;21049;-79
2021/06/07 02:19:10;;;;;;;11.03;7.67;;;;;;;11.70;76.28;99317.30;4181605;84;21361;-79
2021/06/07 02:25:16;;;;;;;11.63;7.50;;;;;;;11.58;76.32;99314.78;4080987;84;21098;-78
2021/06/07 02:31:19;;;;;;;14.47;8.40;;;;;;;11.59;76.50;99314.22;4137115;85;21082;-79
2021/06/07 02:37:20;;;;;;;11.68;8.45;;;;;;;11.59;76.50;99314.22;4147262;84;21060;-78
2021/06/07 02:43:22;;;;;;;9.38;7.42;;;;;;;11.50;77.67;99326.83;4130233;85;21024;-78
2021/06/07 02:49:23;;;;;;;12.18;7.55;;;;;;;11.79;77.62;99320.53;4142114;84;21032;-78
2021/06/07 02:55:33;;;;;;;13.28;8.40;;;;;;;11.83;76.87;99315.89;4123994;84;21636;-78
2021/06/07 03:01:34;;;;;;;13.70;8.35;;;;;;;11.42;77.13;99316.92;4127114;84;21025;-80
2021/06/07 03:07:35;;;;;;;13.38;9.33;;;;;;;11.22;77.27;99323.71;4139567;84;21057;-78
2021/06/07 03:13:40;;;;;;;13.68;9.50;;;;;;;11.22;77.50;99332.50;4140962;84;21078;-79
2021/06/07 03:19:42;;;;;;;13.83;8.75;;;;;;;11.15;77.85;99335.16;4139554;85;21049;-78
2021/06/07 03:25:46;;;;;;;11.93;8.60;;;;;;;11.06;78.24;99339.53;4157074;84;21045;-78
2021/06/07 03:31:48;;;;;;;15.43;9.80;;;;;;;11.27;78.15;99341.78;4166899;83;21084;-78
2021/06/07 03:37:50;;;;;;;18.65;11.60;;;;;;;11.56;78.50;99347.27;4183612;84;21012;-78
2021/06/07 03:43:52;;;;;;;15.08;9.95;;;;;;;11.52;78.26;99349.75;4145176;83;40117;-78
2021/06/07 03:49:53;;;;;;;17.17;10.63;;;;;;;11.44;78.31;99343.39;4151099;84;21053;-82
2021/06/07 03:55:54;;;;;;;14.07;10.45;;;;;;;11.48;78.81;99343.45;4155183;83;21038;-82
2021/06/07 04:01:57;;;;;;;15.75;10.50;;;;;;;11.71;78.96;99353.75;4148069;83;21064;-77
2021/06/07 04:08:00;;;;;;;11.78;9.88;;;;;;;12.02;78.79;99344.52;4159296;83;21136;-78
2021/06/07 04:14:01;;;;;;;13.93;8.48;;;;;;;12.16;78.70;99348.78;4150528;84;21085;-78
2021/06/07 04:20:09;;;;;;;15.80;8.90;;;;;;;12.40;78.60;99348.83;4109340;85;21068;-78
2021/06/07 04:26:11;;;;;;;15.83;9.65;;;;;;;12.62;78.39;99361.58;4128392;85;21825;-79
2021/06/07 04:32:12;;;;;;;12.37;10.23;;;;;;;12.77;78.15;99363.84;4110081;84;21040;-77
2021/06/07 04:38:13;;;;;;;13.25;9.93;;;;;;;12.86;77.88;99372.57;4161166;84;21060;-79
2021/06/07 04:44:15;;;;;;;15.32;9.80;;;;;;;12.93;77.80;99356.92;4160496;84;21062;-78
2021/06/07 04:50:18;;;;;;;11.93;8.10;;;;;;;13.10;77.74;99355.48;4165381;84;21030;-78
2021/06/07 04:56:19;;;;;;;13.08;9.28;;;;;;;13.25;77.67;99358.55;4166231;84;21018;-79
2021/06/07 05:02:20;;;;;;;15.95;9.93;;;;;;;13.37;77.76;99372.77;4160436;84;21124;-77
2021/06/07 05:08:24;;;;;;;19.90;11.22;;;;;;;13.54;77.83;99380.32;4162460;84;21120;-78
2021/06/07 05:14:25;;;;;;;13.00;8.63;;;;;;;13.79;77.69;99382.60;4159258;84;21075;-77
2021/06/07 05:20:29;;;;;;;15.32;8.38;;;;;;;14.03;77.72;99376.99;4160642;84;21896;-79
2021/06/07 05:26:31;;;;;;;9.98;6.47;;;;;;;14.28;77.54;99371.58;4162666;84;21033;-80
2021/06/07 05:32:32;;;;;;;14.75;7.30;;;;;;;14.54;77.27;99373.39;4169207;84;21026;-78
2021/06/07 05:38:33;;;;;;;11.65;6.85;;;;;;;14.85;77.14;99380.89;4165202;84;21106;-78
2021/06/07 05:44:34;;;;;;;9.43;6.58;;;;;;;15.16;77.00;99377.32;4164469;84;21090;-84
2021/06/07 05:50:36;;;;;;;12.33;6.67;;;;;;;15.49;77.04;99383.80;4164878;84;21053;-78
2021/06/07 05:56:38;;;;;;;10.35;6.55;;;;;;;15.82;76.51;99388.64;4157356;84;21018;-78
2021/06/07 06:02:41;;;;;;;11.25;8.05;;;;;;;16.12;76.50;99390.27;4148050;83;21981;-78
2021/06/07 06:08:46;;;;;;;15.53;9.08;;;;;;;16.26;75.82;99397.09;4166604;84;21562;-81
2021/06/07 06:14:48;;;;;;;15.80;7.67;;;;;;;16.48;75.72;99401.34;4164405;84;21549;-78
2021/06/07 06:20:56;;;;;;;14.20;8.28;;;;;;;16.70;75.42;99398.63;4158127;84;21101;-78
2021/06/07 06:27:21;;;;;;;;;;;;;;;;;;;;;
2021/06/07 06:33:20;;;;;;;15.75;8.80;;;;;;;17.24;74.74;99396.42;4001909;84;21045;-78
2021/06/07 06:39:21;;;;;;;16.02;9.10;;;;;;;17.41;74.27;99401.00;4167196;84;21023;-78
2021/06/07 06:45:23;;;;;;;14.10;10.43;;;;;;;17.49;74.21;99391.47;4170448;84;21051;-79
2021/06/07 06:51:25;;;;;;;19.23;12.25;;;;;;;17.75;74.08;99399.67;4164691;84;22224;-79
2021/06/07 06:57:27;;;;;;;13.65;9.50;;;;;;;18.16;73.54;99400.36;4166667;84;21101;-79
2021/06/07 07:03:29;;;;;;;17.30;9.03;;;;;;;18.76;73.12;99404.50;4167286;84;21109;-79
2021/06/07 07:09:30;;;;;;;16.48;8.88;;;;;;;19.44;72.49;99402.18;4165987;84;20999;-79
2021/06/07 07:15:34;;;;;;;12.20;7.97;;;;;;;20.22;71.80;99404.26;4167604;84;21118;-81
2021/06/07 07:21:35;;;;;;;18.57;8.25;;;;;;;20.86;70.91;99399.59;4169430;84;21027;-80
2021/06/07 07:27:38;;;;;;;11.00;7.70;;;;;;;21.75;69.81;99407.31;4164053;84;21016;-82
2021/06/07 07:33:44;;;;;;;11.83;6.12;;;;;;;22.26;67.81;99411.02;4171053;84;21034;-79
2021/06/07 07:39:44;;;;;;;12.18;6.30;;;;;;;22.55;66.96;99411.78;4162466;84;21066;-80
2021/06/07 07:45:45;;;;;;;9.60;5.97;;;;;;;22.68;66.14;99416.13;4161856;84;21029;-80
2021/06/07 07:51:48;;;;;;;8.48;4.67;;;;;;;23.19;65.05;99412.70;4164180;84;21096;-80
2021/06/07 07:57:50;;;;;;;10.80;5.70;;;;;;;23.46;63.38;99410.83;4162001;84;21577;-80
2021/06/07 08:03:52;;;;;;;10.38;4.85;;;;;;;23.67;62.03;99412.27;4158418;84;21081;-80
2021/06/07 08:09:54;;;;;;;5.53;3.58;;;;;;;23.83;60.72;99412.70;4161219;84;21066;-79
2021/06/07 08:15:57;;;;;;;7.45;3.67;;;;;;;23.79;59.31;99412.06;4160857;84;21058;-80
2021/06/07 08:21:59;;;;;;;5.62;4.08;;;;;;;23.61;57.94;99408.48;4159406;84;21046;-80
2021/06/07 08:28:01;;;;;;;7.72;4.35;;;;;;;23.83;57.31;99407.90;4166042;84;21101;-80
2021/06/07 08:34:04;;;;;;;8.48;4.15;;;;;;;24.05;56.91;99405.13;4162299;84;21062;-80
2021/06/07 08:40:10;;;;;;;5.65;4.15;;;;;;;24.00;55.28;99403.70;4162795;84;21044;-79
2021/06/07 08:46:13;;;;;;;7.10;4.87;;;;;;;24.24;54.67;99402.62;4162774;84;21094;-78
2021/06/07 08:52:18;;;;;;;4.10;3.17;;;;;;;24.31;54.58;99401.73;4154209;84;21775;-79
2021/06/07 08:58:18;;;;;;;5.53;2.80;;;;;;;24.08;51.82;99393.03;4162150;84;21059;-79
2021/06/07 09:04:24;;;;;;;6.17;3.33;;;;;;;24.22;51.35;99393.30;4166972;84;21110;-78
2021/06/07 09:10:29;;;;;;;4.47;3.37;;;;;;;24.26;51.14;99389.73;4162697;84;21002;-79
2021/06/07 09:16:39;;;;;;;4.13;2.30;;;;;;;24.23;50.06;99392.66;4161278;84;21087;-79
2021/06/07 09:22:59;;;;;;;4.15;2.65;;;;;;;24.26;42.85;99386.93;4153983;84;21031;-78
2021/06/07 09:29:05;;;;;;;6.15;2.40;;;;;;;24.37;47.20;99378.91;4150351;84;21008;-80
2021/06/07 09:35:10;;;;;;;2.87;1.92;;;;;;;24.95;46.12;99380.42;4148180;84;21491;-79
2021/06/07 09:41:11;;;;;;;4.03;2.20;;;;;;;24.71;44.51;99378.63;4145134;84;21059;-78
2021/06/07 09:47:24;;;;;;;5.40;2.25;;;;;;;24.85;43.12;99382.27;4191780;83;21067;-79
2021/06/07 09:53:57;;;;;;;5.83;2.25;;;;;;;25.36;42.38;99373.53;4172699;83;21033;-79
2021/06/07 09:59:58;;;;;;;3.22;2.00;;;;;;;25.80;42.55;99364.37;4157178;83;21018;-80
2021/06/07 10:06:05;;;;;;;3.87;1.98;;;;;;;25.80;38.43;99364.98;4184877;83;21058;-80
2021/06/07 10:12:26;;;;;;;3.55;2.05;;;;;;;25.80;39.04;99364.98;4194923;83;21088;-80
2021/06/07 10:18:28;;;;;;;2.85;2.10;;;;;;;25.90;38.84;99369.34;4182923;83;21094;-82
2021/06/07 10:24:30;;;;;;;4.42;2.30;;;;;;;26.20;38.74;99369.02;4173793;83;20999;-83
2021/06/07 10:30:44;;;;;;;2.83;2.20;;;;;;;26.36;37.13;99340.59;4187913;83;21022;-79
2021/06/07 10:36:49;;;;;;;3.55;2.22;;;;;;;26.78;37.54;99355.42;4169991;83;21054;-79
2021/06/07 10:43:02;;;;;;;2.25;2.05;;;;;;;26.97;37.15;99354.08;4196516;83;21010;-80
2021/06/07 10:49:37;;;;;;;3.40;2.37;;;;;;;26.77;36.21;99354.63;4193267;82;21061;-80
2021/06/07 10:55:42;;;;;;;2.12;1.82;;;;;;;26.50;35.01;99352.55;4192608;82;21082;-80
2021/06/07 11:01:53;;;;;;;2.87;1.85;;;;;;;27.02;36.30;99347.16;4181235;83;21010;-80
2021/06/07 11:08:32;;;;;;;4.22;2.05;;;;;;;27.56;35.25;99350.25;4205456;83;21125;-79
2021/06/07 11:14:33;;;;;;;2.83;2.02;;;;;;;27.92;34.81;99340.73;4175347;83;21104;-81
2021/06/07 11:20:40;;;;;;;4.67;1.90;;;;;;;28.43;33.51;99337.66;4148872;83;21034;-81
2021/06/07 11:26:44;;;;;;;3.35;1.80;;;;;;;28.70;33.79;99343.00;4151242;83;21551;-79
2021/06/07 11:32:47;;;;;;;3.75;1.98;;;;;;;29.14;32.95;99335.05;4180588;83;21051;-83
2021/06/07 11:39:01;;;;;;;4.00;1.72;;;;;;;29.27;32.34;99328.44;4169873;82;21110;-80
2021/06/07 11:45:09;;;;;;;5.28;1.90;;;;;;;29.50;32.44;99318.34;4178207;83;20992;-80
2021/06/07 11:51:32;;;;;;;4.35;1.80;;;;;;;29.81;31.54;99307.80;4182404;82;21033;-78
2021/06/07 11:57:35;;;;;;;2.77;1.70;;;;;;;29.76;30.85;99312.74;4163991;83;21037;-80
2021/06/07 12:03:37;;;;;;;2.72;1.90;;;;;;;29.73;31.39;99296.19;4207126;82;21720;-79
2021/06/07 12:09:43;;;;;;;2.65;1.90;;;;;;;29.73;30.87;99302.45;4158549;83;21037;-79
2021/06/07 12:15:56;;;;;;;2.65;1.80;;;;;;;29.57;30.08;99299.56;4173785;82;21558;-80
2021/06/07 12:22:01;;;;;;;2.92;2.00;;;;;;;28.90;29.19;99304.99;4190553;82;21062;-79
2021/06/07 12:28:23;;;;;;;4.53;2.67;;;;;;;27.98;29.27;99297.38;4167879;82;21092;-80
2021/06/07 12:34:21;;;;;;;6.62;2.27;;;;;;;27.11;29.97;99297.17;4178357;83;21030;-81
2021/06/07 12:40:34;;;;;;;3.85;2.50;;;;;;;27.05;29.53;99290.63;4174551;83;21100;-81
2021/06/07 12:46:52;;;;;;;2.27;1.90;;;;;;;26.84;30.26;99293.13;4158237;83;21138;-79
2021/06/07 12:52:56;;;;;;;3.30;2.10;;;;;;;26.78;30.23;99287.38;4174215;82;21029;-79
2021/06/07 12:59:01;;;;;;;7.22;2.40;;;;;;;26.74;31.04;99286.78;4179237;83;21076;-82
2021/06/07 13:05:25;;;;;;;2.62;2.15;;;;;;;26.74;31.06;99291.62;4175632;83;21043;-79
2021/06/07 13:12:06;;;;;;;5.20;2.20;;;;;;;26.37;31.12;99285.39;4166673;83;21106;-79
2021/06/07 13:18:09;;;;;;;3.50;2.42;;;;;;;26.26;30.79;99282.32;4133784;84;21598;-80
2021/06/07 13:24:16;;;;;;;4.00;2.25;;;;;;;26.11;31.27;99285.02;4142405;83;21058;-80
2021/06/07 13:30:26;;;;;;;3.35;2.02;;;;;;;25.97;31.75;99275.83;4164065;84;21594;-79
2021/06/07 13:36:28;;;;;;;2.77;2.10;;;;;;;25.96;31.57;99274.91;4162750;84;21677;-80
2021/06/07 13:42:47;;;;;;;2.80;1.90;;;;;;;25.84;31.64;99243.62;4164580;84;21067;-80
2021/06/07 13:48:48;;;;;;;3.62;2.10;;;;;;;25.93;32.22;99263.98;4157723;84;21036;-79
2021/06/07 13:54:55;;;;;;;3.58;2.08;;;;;;;25.93;31.38;99261.19;4163916;84;21072;-80
2021/06/07 14:00:57;;;;;;;;;;;;;;;25.73;30.86;99220.27;4137926;84;21042;-78
2021/06/07 14:06:58;;;;;;;2.20;2.00;;;;;;;25.89;31.18;99252.17;4156969;84;20558;-80
2021/06/07 14:12:59;;;;;;;2.70;1.80;;;;;;;26.00;31.63;99243.27;4161814;82;20991;-80
2021/06/07 14:19:01;;;;;;;2.85;1.87;;;;;;;26.06;31.32;99235.16;4159832;84;21054;-80
2021/06/07 14:25:06;;;;;;;2.37;1.82;;;;;;;26.04;31.00;99208.84;4156704;84;21039;-80
2021/06/07 14:31:10;;;;;;;4.50;2.10;;;;;;;26.42;32.77;99216.61;4162472;84;21022;-80
2021/06/07 14:37:11;;;;;;;2.33;2.08;;;;;;;26.49;32.02;99219.05;4163183;84;21039;-80
2021/06/07 14:43:14;;;;;;;5.30;2.05;;;;;;;26.59;31.01;99220.55;4161047;84;21028;-80
2021/06/07 14:49:16;;;;;;;3.60;1.98;;;;;;;26.38;30.94;99218.79;4158681;84;21038;-79
2021/06/07 14:55:20;;;;;;;4.15;1.92;;;;;;;26.32;31.16;99210.88;4168101;84;21110;-78
2021/06/07 15:01:21;;;;;;;3.10;2.20;;;;;;;26.28;31.40;99208.23;4162818;84;21055;-78
2021/06/07 15:07:22;;;;;;;2.87;2.05;;;;;;;26.32;31.49;99206.05;4161977;84;21055;-79
2021/06/07 15:13:24;;;;;;;2.33;2.00;;;;;;;26.29;31.85;99197.80;4162701;84;21038;-78
2021/06/07 15:19:26;;;;;;;4.45;2.08;;;;;;;26.17;31.45;99193.20;4160421;84;21074;-78
2021/06/07 15:25:28;;;;;;;4.72;2.33;;;;;;;25.94;31.26;99187.03;4159868;84;21074;-80
2021/06/07 15:31:30;;;;;;;1.92;1.77;;;;;;;25.69;30.64;99186.03;4164043;84;21031;-78
2021/06/07 15:37:37;;;;;;;10.48;2.42;;;;;;;25.49;30.58;99180.78;4163213;84;21387;-78
2021/06/07 15:43:40;;;;;;;4.25;1.92;;;;;;;25.36;31.11;99174.58;4161000;84;21130;-77
2021/06/07 15:49:44;;;;;;;3.90;1.87;;;;;;;25.22;30.86;99168.19;4125621;84;21086;-78
2021/06/07 16:03:41;;;;;;;7.17;2.20;;;;;;;24.96;30.96;99166.37;4161749;84;21567;-81
2021/06/07 16:09:43;;;;;;;9.08;2.40;;;;;;;24.87;30.72;99165.59;4159479;84;21550;-78
2021/06/07 16:15:48;;;;;;;3.92;2.17;;;;;;;24.73;31.13;99155.02;4161408;84;21137;-78
2021/06/07 16:21:48;;;;;;;2.10;1.70;;;;;;;24.67;31.28;99151.28;4161094;84;21059;-78
2021/06/07 16:27:49;;;;;;;2.70;1.90;;;;;;;24.61;31.33;99153.27;4153714;84;21070;-80
2021/06/07 16:33:54;;;;;;;2.83;2.00;;;;;;;24.54;31.44;99162.59;4145947;84;21054;-79
2021/06/07 16:39:55;;;;;;;3.35;2.02;;;;;;;24.46;31.06;99152.94;4145013;84;21113;-78
2021/06/07 16:46:01;;;;;;;5.85;2.25;;;;;;;24.40;31.14;99146.41;4140983;84;21019;-81
2021/06/07 16:52:03;;;;;;;2.40;1.92;;;;;;;24.32;31.10;99161.93;4142813;84;21419;-77
2021/06/07 16:58:06;;;;;;;2.20;1.80;;;;;;;24.26;31.55;99152.56;4146408;84;21042;-77
2021/06/07 17:04:08;;;;;;;5.80;2.77;;;;;;;24.11;32.18;99155.80;4140485;84;21454;-78
2021/06/07 17:10:13;;;;;;;2.75;1.90;;;;;;;23.94;32.42;99152.47;4141003;84;21038;-78
2021/06/07 17:16:15;;;;;;;2.87;1.75;;;;;;;23.84;32.17;99155.67;4125755;84;21006;-77
2021/06/07 17:22:16;;;;;;;4.08;1.80;;;;;;;23.70;32.30;99146.45;4191307;82;21019;-78
2021/06/07 17:28:19;;;;;;;4.53;2.02;;;;;;;23.51;32.80;99154.61;4177944;82;21042;-77
2021/06/07 17:34:20;;;;;;;2.30;1.80;;;;;;;23.39;32.98;99150.66;4165811;83;20995;-77
2021/06/07 17:40:22;;;;;;;2.85;2.17;;;;;;;23.21;33.30;99154.69;4180859;83;21058;-78
2021/06/07 17:46:25;;;;;;;5.22;1.85;;;;;;;23.01;33.67;99155.03;4070982;78;9999605;-78
2021/06/07 17:52:26;;;;;;;2.98;1.60;;;;;;;22.83;34.01;99156.27;4175831;83;21006;-78
2021/06/07 17:58:28;;;;;;;2.30;2.00;;;;;;;22.65;34.30;99157.53;4162324;83;20948;-77
2021/06/07 18:04:31;;;;;;;3.00;1.95;;;;;;;22.50;34.80;99157.84;4165947;83;21006;-78
2021/06/07 18:10:32;;;;;;;5.42;2.15;;;;;;;22.31;34.91;99167.25;4166841;83;21509;-78
2021/06/07 18:16:34;;;;;;;5.58;3.10;;;;;;;22.08;35.46;99167.59;4178287;83;21027;-79
2021/06/07 18:22:35;;;;;;;6.97;3.87;;;;;;;21.81;35.93;99172.08;4179469;82;20991;-78
2021/06/07 18:28:37;;;;;;;12.95;7.05;;;;;;;21.50;36.74;99176.75;4196992;82;21023;-79
2021/06/07 18:34:39;;;;;;;16.42;7.75;;;;;;;21.16;37.81;99176.58;4217613;82;21038;-78
2021/06/07 18:40:40;;;;;;;14.05;5.83;;;;;;;20.79;38.90;99185.55;4227034;82;21051;-78
2021/06/07 18:46:43;;;;;;;8.60;4.10;;;;;;;20.38;39.87;99187.42;4104869;80;10000484;-78
2021/06/07 18:52:48;;;;;;;14.35;3.95;;;;;;;20.01;40.86;99188.71;4236318;82;21559;-80
2021/06/07 18:58:47;;;;;;;9.30;3.70;;;;;;;19.70;41.66;99202.11;4113188;81;9999897;-78
2021/06/07 19:04:50;;;;;;;10.40;3.72;;;;;;;19.37;42.77;99201.83;4212419;82;21030;-78
2021/06/07 19:10:52;;;;;;;6.40;3.40;;;;;;;19.11;43.25;99213.05;4228343;82;21026;-78
2021/06/07 19:16:53;;;;;;;6.83;3.52;;;;;;;18.84;44.16;99225.65;4223059;82;20994;-78
2021/06/07 19:22:55;;;;;;;9.35;3.37;;;;;;;18.56;44.99;99230.31;4233024;81;20981;-81
2021/06/07 19:28:56;;;;;;;9.90;4.42;;;;;;;18.30;46.11;99234.69;4223435;82;21031;-78
2021/06/07 19:34:59;;;;;;;10.13;3.90;;;;;;;17.97;46.89;99244.50;4212249;82;21031;-77
2021/06/07 19:41:01;;;;;;;10.82;4.40;;;;;;;17.67;48.06;99245.91;4221027;82;21023;-79
2021/06/07 19:47:03;;;;;;;11.03;5.47;;;;;;;17.46;49.42;99252.50;4224551;82;21001;-78
2021/06/07 19:53:04;;;;;;;16.12;6.92;;;;;;;17.26;49.10;99256.30;4235477;82;22026;-81
2021/06/07 19:59:06;;;;;;;20.90;10.58;;;;;;;17.03;50.15;99259.11;4114938;81;9999968;-78
2021/06/07 20:05:07;;;;;;;22.13;10.85;;;;;;;16.71;50.48;99257.25;4222946;82;21006;-77
2021/06/07 20:11:09;;;;;;;19.75;10.28;;;;;;;16.43;51.38;99258.84;4240991;82;21005;-77
2021/06/07 20:17:12;;;;;;;18.87;9.30;;;;;;;16.21;52.20;99257.44;4231711;82;20962;-77
2021/06/07 20:23:14;;;;;;;26.25;14.65;;;;;;;16.05;53.90;99258.56;4225761;82;21049;-76
2021/06/07 20:29:15;;;;;;;29.60;13.58;;;;;;;15.87;53.97;99263.39;4235954;81;20995;-77
2021/06/07 20:35:18;;;;;;;30.92;13.15;;;;;;;15.61;54.30;99275.74;4215879;82;20982;-78
2021/06/07 20:41:20;;;;;;;24.72;11.75;;;;;;;15.42;55.89;99268.55;4242130;82;21385;-78
2021/06/07 20:47:21;;;;;;;23.45;10.70;;;;;;;15.33;55.93;99266.78;4211999;82;21007;-78
2021/06/07 20:53:24;;;;;;;21.93;10.63;;;;;;;15.21;56.50;99266.62;4242342;82;21079;-77
2021/06/07 20:59:28;;;;;;;28.90;10.80;;;;;;;15.09;56.83;99272.57;4113449;80;10000082;-77
2021/06/07 21:05:30;;;;;;;20.55;10.23;;;;;;;14.91;57.31;99275.17;4232472;82;21085;-78
2021/06/07 21:11:32;;;;;;;25.92;10.72;;;;;;;14.62;57.83;99277.17;4222996;82;21576;-78
2021/06/07 21:17:34;;;;;;;23.35;11.22;;;;;;;14.46;58.30;99278.73;4220748;82;20993;-79
2021/06/07 21:23:35;;;;;;;18.95;10.00;;;;;;;14.26;58.85;99285.23;4230168;81;21569;-77
2021/06/07 21:29:36;;;;;;;17.52;9.68;;;;;;;13.92;59.85;99289.48;4201213;82;20992;-77
2021/06/07 21:35:38;;;;;;;22.62;10.30;;;;;;;13.94;60.43;99285.72;4168726;83;21007;-79
2021/06/07 21:41:40;;;;;;;23.60;11.33;;;;;;;13.85;60.57;99300.45;4194455;82;21131;-77
2021/06/07 21:47:42;;;;;;;28.52;13.03;;;;;;;13.56;62.19;99297.42;4188846;82;21077;-77
2021/06/07 21:53:43;;;;;;;26.33;12.25;;;;;;;13.46;61.94;99296.77;4180418;82;21057;-77
2021/06/07 21:59:48;;;;;;;22.82;12.07;;;;;;;13.52;62.82;99295.23;4206322;83;21533;-77
2021/06/07 22:05:50;;;;;;;28.25;12.68;;;;;;;13.57;62.96;99294.28;4184079;83;21539;-77
2021/06/07 22:11:51;;;;;;;26.70;13.13;;;;;;;13.53;63.11;99300.95;4189591;83;21069;-77
2021/06/07 22:17:53;;;;;;;22.85;12.25;;;;;;;13.55;63.82;99294.45;4168175;82;20994;-77
2021/06/07 22:23:55;;;;;;;21.77;11.68;;;;;;;13.44;64.02;99293.03;4175317;83;21151;-77
2021/06/07 22:29:57;;;;;;;17.37;10.20;;;;;;;13.29;64.37;99293.36;4205212;81;20994;-77
2021/06/07 22:35:58;;;;;;;19.92;10.15;;;;;;;13.15;64.73;99294.09;4222261;81;21517;-77
2021/06/07 22:42:00;;;;;;;15.75;8.93;;;;;;;12.99;64.94;99302.38;4212061;82;21019;-77
2021/06/07 22:48:03;;;;;;;19.82;9.20;;;;;;;12.86;65.28;99295.64;4226914;82;21057;-77
2021/06/07 22:54:04;;;;;;;22.32;9.18;;;;;;;12.76;66.20;99294.39;4218041;82;21013;-77
2021/06/07 23:00:09;;;;;;;25.17;10.28;;;;;;;12.70;66.75;99293.15;4237051;81;21049;-77
2021/06/07 23:06:10;;;;;;;19.55;8.40;;;;;;;12.83;66.78;99294.43;4223358;82;21126;-77
2021/06/07 23:12:12;;;;;;;17.82;9.18;;;;;;;12.89;67.12;99298.39;4219658;82;21121;-77
2021/06/07 23:18:13;;;;;;;19.37;9.98;;;;;;;12.84;67.02;99294.66;4220207;82;21047;-77
2021/06/07 23:24:15;;;;;;;16.07;9.43;;;;;;;12.70;67.10;99293.75;4219193;81;21078;-77
2021/06/07 23:30:17;;;;;;;11.85;7.80;;;;;;;12.57;67.45;99287.77;4205257;82;21032;-78
2021/06/07 23:36:19;;;;;;;15.18;7.75;;;;;;;12.55;68.14;99272.25;4183457;83;21880;-77
2021/06/07 23:42:20;;;;;;;14.93;9.40;;;;;;;12.57;68.26;99284.42;4205696;83;20989;-77
2021/06/07 23:48:21;;;;;;;14.90;9.08;;;;;;;12.43;68.55;99281.56;4212757;82;22165;-77
2021/06/07 23:54:23;;;;;;;13.60;7.92;;;;;;;12.33;68.73;99280.91;4193079;82;21024;-76
